createdAt,value
2018-09-23T00:02:01.723Z,5.37
2018-09-23T00:04:29.681Z,5.70
2018-09-23T00:06:57.606Z,5.30
2018-09-23T00:09:26.542Z,5.27
2018-09-23T00:11:54.511Z,5.50
2018-09-23T00:14:23.332Z,5.40
2018-09-23T00:16:51.230Z,5.53
2018-09-23T00:19:19.108Z,5.70
2018-09-23T00:21:46.978Z,5.33
2018-09-23T00:24:14.842Z,5.57
2018-09-23T00:26:42.745Z,5.57
2018-09-23T00:29:11.544Z,5.27
2018-09-23T00:31:40.506Z,5.43
2018-09-23T00:34:08.503Z,5.40
2018-09-23T00:36:36.445Z,5.60
2018-09-23T00:39:09.205Z,5.57
2018-09-23T00:41:37.093Z,6.07
2018-09-23T00:44:05.038Z,5.70
2018-09-23T00:46:34.950Z,6.27
2018-09-23T00:49:02.852Z,5.70
2018-09-23T00:51:30.783Z,5.47
2018-09-23T00:53:58.694Z,5.80
2018-09-23T00:56:26.738Z,5.13
2018-09-23T00:58:54.761Z,5.97
2018-09-23T01:01:26.120Z,5.97
2018-09-23T01:03:54.054Z,6.33
2018-09-23T01:06:23.911Z,6.13
2018-09-23T01:08:53.896Z,5.70
2018-09-23T01:11:22.853Z,6.10
2018-09-23T01:13:50.827Z,5.73
2018-09-23T01:16:18.826Z,6.07
2018-09-23T01:18:46.886Z,5.87
2018-09-23T01:21:14.859Z,6.10
2018-09-23T01:23:42.753Z,6.07
2018-09-23T01:26:10.669Z,5.83
2018-09-23T01:28:39.533Z,5.67
2018-09-23T01:31:07.490Z,5.70
2018-09-23T01:33:35.370Z,5.30
2018-09-23T01:36:04.305Z,6.00
2018-09-23T01:38:34.177Z,6.23
2018-09-23T01:41:05.497Z,5.97
2018-09-23T01:43:33.425Z,5.60
2018-09-23T01:46:02.419Z,5.60
2018-09-23T01:48:32.386Z,6.30
2018-09-23T01:51:01.276Z,6.10
2018-09-23T01:53:30.209Z,5.20
2018-09-23T01:56:00.061Z,6.23
2018-09-23T01:58:27.992Z,6.27
2018-09-23T02:00:56.003Z,5.67
2018-09-23T02:03:23.898Z,5.33
2018-09-23T02:05:51.867Z,5.83
2018-09-23T02:08:20.806Z,6.70
2018-09-23T02:10:50.705Z,6.03
2018-09-23T02:13:18.645Z,6.20
2018-09-23T02:15:46.561Z,6.10
2018-09-23T02:18:19.025Z,6.40
2018-09-23T02:20:46.999Z,5.93
2018-09-23T02:23:15.006Z,5.50
2018-09-23T02:25:44.996Z,6.57
2018-09-23T02:28:13.913Z,6.20
2018-09-23T02:30:42.831Z,6.40
2018-09-23T02:33:10.779Z,6.23
2018-09-23T02:35:39.669Z,6.27
2018-09-23T02:38:08.598Z,5.70
2018-09-23T02:40:38.457Z,6.30
2018-09-23T02:43:06.423Z,6.57
2018-09-23T02:45:34.383Z,6.47
2018-09-23T02:48:02.319Z,5.70
2018-09-23T02:50:30.331Z,6.93
2018-09-23T02:53:00.182Z,6.47
2018-09-23T02:55:29.094Z,6.97
2018-09-23T02:57:57.071Z,7.20
2018-09-23T03:00:25.086Z,7.40
2018-09-23T03:02:53.006Z,7.73
2018-09-23T03:05:21.010Z,7.63
2018-09-23T03:07:48.888Z,8.10
2018-09-23T03:10:19.882Z,7.93
2018-09-23T03:12:47.860Z,8.67
2018-09-23T03:15:15.768Z,7.57
2018-09-23T03:17:43.731Z,7.47
2018-09-23T03:20:12.655Z,8.80
2018-09-23T03:22:40.554Z,8.40
2018-09-23T03:25:09.438Z,8.73
2018-09-23T03:27:39.346Z,9.20
2018-09-23T03:30:07.160Z,9.07
2018-09-23T03:32:35.077Z,9.03
2018-09-23T03:35:02.918Z,9.57
2018-09-23T03:37:30.932Z,9.23
2018-09-23T03:40:02.984Z,9.80
2018-09-23T03:42:30.971Z,9.80
2018-09-23T03:45:00.913Z,9.80
2018-09-23T03:47:29.846Z,9.97
2018-09-23T03:49:59.761Z,9.63
2018-09-23T03:52:28.653Z,9.70
2018-09-23T03:54:57.554Z,9.27
2018-09-23T03:57:27.446Z,9.20
2018-09-23T03:59:55.444Z,10.37
2018-09-23T04:02:23.434Z,10.13
2018-09-23T04:04:51.431Z,9.57
2018-09-23T04:07:21.425Z,9.43
2018-09-23T04:09:49.387Z,9.63
2018-09-23T04:12:17.276Z,8.97
2018-09-23T04:14:46.257Z,10.20
2018-09-23T04:17:14.185Z,9.53
2018-09-23T04:19:42.077Z,10.20
2018-09-23T04:22:10.088Z,10.40
2018-09-23T04:24:38.981Z,10.90
2018-09-23T04:27:07.920Z,9.70
2018-09-23T04:29:35.854Z,10.07
2018-09-23T04:32:06.889Z,10.20
2018-09-23T04:34:35.785Z,10.13
2018-09-23T04:37:04.706Z,9.00
2018-09-23T04:39:32.706Z,9.43
2018-09-23T04:42:01.620Z,8.87
2018-09-23T04:44:29.555Z,8.80
2018-09-23T04:46:58.438Z,9.23
2018-09-23T04:49:27.272Z,9.00
2018-09-23T04:51:57.229Z,8.13
2018-09-23T04:54:25.212Z,8.83
2018-09-23T04:56:54.061Z,8.37
2018-09-23T04:59:24.056Z,8.53
2018-09-23T05:01:51.929Z,9.20
2018-09-23T05:04:20.865Z,8.40
2018-09-23T05:06:48.809Z,8.77
2018-09-23T05:09:17.734Z,8.73
2018-09-23T05:11:45.703Z,8.20
2018-09-23T05:14:16.941Z,8.13
2018-09-23T05:16:50.634Z,8.37
2018-09-23T05:19:18.502Z,8.80
2018-09-23T05:21:47.425Z,8.87
2018-09-23T05:24:15.373Z,7.77
2018-09-23T05:26:43.355Z,8.30
2018-09-23T05:29:12.253Z,7.80
2018-09-23T05:31:40.205Z,8.57
2018-09-23T05:34:09.121Z,9.03
2018-09-23T05:36:37.095Z,8.20
2018-09-23T05:39:06.956Z,8.50
2018-09-23T05:41:34.825Z,8.03
2018-09-23T05:44:06.300Z,9.17
2018-09-23T05:46:34.179Z,8.50
2018-09-23T05:49:02.155Z,8.33
2018-09-23T05:51:30.207Z,8.67
2018-09-23T05:54:03.685Z,8.97
2018-09-23T05:56:31.810Z,7.67
2018-09-23T05:58:59.729Z,7.97
2018-09-23T06:01:27.585Z,8.90
2018-09-23T06:03:55.502Z,7.90
2018-09-23T06:06:24.441Z,8.17
2018-09-23T06:08:54.457Z,8.27
2018-09-23T06:11:23.341Z,8.10
2018-09-23T06:13:52.289Z,7.50
2018-09-23T06:16:21.131Z,7.87
2018-09-23T06:18:49.992Z,8.53
2018-09-23T06:21:17.939Z,7.50
2018-09-23T06:23:45.890Z,7.63
2018-09-23T06:26:15.826Z,7.73
2018-09-23T06:28:44.786Z,7.47
2018-09-23T06:31:13.617Z,8.20
2018-09-23T06:33:41.562Z,7.40
2018-09-23T06:36:10.412Z,7.70
2018-09-23T06:38:40.341Z,8.73
2018-09-23T06:41:09.262Z,7.40
2018-09-23T06:43:37.250Z,7.90
2018-09-23T06:46:05.223Z,7.50
2018-09-23T06:48:33.161Z,7.10
2018-09-23T06:51:02.055Z,7.23
2018-09-23T06:53:29.976Z,6.90
2018-09-23T06:55:57.988Z,6.77
2018-09-23T06:58:25.929Z,7.40
2018-09-23T07:00:53.829Z,6.77
2018-09-23T07:03:22.652Z,7.07
2018-09-23T07:05:50.593Z,6.50
2018-09-23T07:08:18.550Z,6.53
2018-09-23T07:10:47.446Z,6.97
2018-09-23T07:13:19.415Z,6.50
2018-09-23T07:15:49.565Z,7.07
2018-09-23T07:18:18.518Z,6.33
2018-09-23T07:20:46.487Z,6.10
2018-09-23T07:23:15.973Z,6.80
2018-09-23T07:25:43.883Z,6.30
2018-09-23T07:28:11.814Z,6.80
2018-09-23T07:30:40.637Z,7.10
2018-09-23T07:33:08.651Z,6.97
2018-09-23T07:35:41.484Z,7.00
2018-09-23T07:38:10.400Z,7.30
2018-09-23T07:40:41.875Z,7.10
2018-09-23T07:43:14.518Z,6.57
2018-09-23T07:45:42.486Z,6.30
2018-09-23T07:48:10.418Z,5.70
2018-09-23T07:50:42.350Z,5.80
2018-09-23T07:53:14.171Z,4.80
2018-09-23T07:55:44.220Z,5.33
2018-09-23T07:58:12.061Z,4.73
2018-09-23T08:00:43.862Z,5.97
2018-09-23T08:03:11.808Z,6.00
2018-09-23T08:05:39.936Z,5.00
2018-09-23T08:08:09.257Z,5.50
2018-09-23T08:10:38.278Z,4.67
2018-09-23T08:13:06.541Z,5.20
2018-09-23T08:15:34.449Z,5.00
2018-09-23T08:18:03.400Z,4.77
2018-09-23T08:20:41.702Z,4.63
2018-09-23T08:23:09.671Z,4.40
2018-09-23T08:25:38.712Z,4.50
2018-09-23T08:28:06.617Z,4.50
2018-09-23T08:30:36.526Z,4.63
2018-09-23T08:33:05.380Z,5.10
2018-09-23T08:35:35.358Z,4.40
2018-09-23T08:38:03.222Z,3.67
2018-09-23T08:40:31.082Z,3.70
2018-09-23T08:43:00.125Z,3.60
2018-09-23T08:45:30.030Z,3.70
2018-09-23T08:48:06.186Z,3.77
2018-09-23T08:50:37.326Z,3.80
2018-09-23T08:53:05.400Z,3.30
2018-09-23T08:55:34.293Z,3.43
2018-09-23T08:58:04.204Z,3.30
2018-09-23T09:00:34.179Z,3.40
2018-09-23T09:03:03.109Z,3.13
2018-09-23T09:05:32.172Z,3.47
2018-09-23T09:08:01.347Z,3.30
2018-09-23T09:10:31.392Z,2.93
2018-09-23T09:13:01.586Z,2.73
2018-09-23T09:15:30.591Z,2.50
2018-09-23T09:17:59.494Z,2.60
2018-09-23T09:20:27.437Z,2.80
2018-09-23T09:22:55.421Z,2.80
2018-09-23T09:25:23.498Z,2.90
2018-09-23T09:27:51.486Z,2.30
2018-09-23T09:30:21.484Z,2.90
2018-09-23T09:32:50.437Z,2.40
2018-09-23T09:35:18.326Z,2.50
2018-09-23T09:37:46.305Z,2.53
2018-09-23T09:40:15.166Z,2.40
2018-09-23T09:42:46.983Z,2.60
2018-09-23T09:45:19.477Z,2.30
2018-09-23T09:47:49.400Z,2.63
2018-09-23T09:50:17.278Z,2.60
2018-09-23T09:52:49.709Z,2.60
2018-09-23T09:55:18.623Z,3.10
2018-09-23T09:57:56.555Z,2.70
2018-09-23T10:00:34.887Z,2.60
2018-09-23T10:03:03.893Z,2.90
2018-09-23T10:05:36.191Z,2.40
2018-09-23T10:08:05.101Z,2.10
2018-09-23T10:10:33.066Z,2.20
2018-09-23T10:13:01.965Z,2.37
2018-09-23T10:15:33.917Z,2.33
2018-09-23T10:18:01.813Z,3.10
2018-09-23T10:20:29.698Z,3.77
2018-09-23T10:22:57.906Z,2.80
2018-09-23T10:25:26.717Z,2.90
2018-09-23T10:27:55.648Z,3.20
2018-09-23T10:30:23.628Z,2.77
2018-09-23T10:32:51.790Z,2.67
2018-09-23T10:35:21.695Z,2.30
2018-09-23T10:37:52.942Z,1.90
2018-09-23T10:40:20.824Z,2.17
2018-09-23T10:42:48.752Z,2.10
2018-09-23T10:45:17.707Z,2.10
2018-09-23T10:47:48.722Z,2.17
2018-09-23T10:50:16.660Z,1.97
2018-09-23T10:52:46.552Z,2.57
2018-09-23T10:55:18.048Z,2.70
2018-09-23T10:57:46.943Z,2.17
2018-09-23T11:00:14.856Z,1.90
2018-09-23T11:02:46.987Z,2.40
2018-09-23T11:05:15.865Z,2.27
2018-09-23T11:07:44.919Z,1.83
2018-09-23T11:10:13.810Z,2.30
2018-09-23T11:12:41.755Z,2.30
2018-09-23T11:15:09.706Z,2.30
2018-09-23T11:17:37.645Z,2.47
2018-09-23T11:20:06.521Z,2.23
2018-09-23T11:22:36.458Z,2.37
2018-09-23T11:25:05.321Z,2.50
2018-09-23T11:27:34.192Z,2.40
2018-09-23T11:30:03.111Z,2.17
2018-09-23T11:32:30.996Z,2.27
2018-09-23T11:34:58.994Z,2.23
2018-09-23T11:37:26.938Z,2.07
2018-09-23T11:39:55.904Z,2.77
2018-09-23T11:42:23.745Z,2.70
2018-09-23T11:44:52.663Z,2.40
2018-09-23T11:47:21.615Z,2.70
2018-09-23T11:49:49.517Z,2.37
2018-09-23T11:52:18.438Z,2.60
2018-09-23T11:54:47.304Z,3.20
2018-09-23T11:57:19.648Z,2.60
2018-09-23T11:59:53.291Z,2.73
2018-09-23T12:02:23.515Z,2.50
2018-09-23T12:04:51.430Z,2.90
2018-09-23T12:07:19.476Z,3.20
2018-09-23T12:09:47.427Z,3.17
2018-09-23T12:12:18.644Z,3.33
2018-09-23T12:14:46.569Z,2.90
2018-09-23T12:17:14.458Z,3.17
2018-09-23T12:19:45.703Z,3.77
2018-09-23T12:22:13.644Z,3.47
2018-09-23T12:24:42.569Z,3.70
2018-09-23T12:27:13.682Z,3.43
2018-09-23T12:29:42.609Z,3.90
2018-09-23T12:32:10.598Z,3.70
2018-09-23T12:34:39.543Z,4.30
2018-09-23T12:37:07.514Z,4.20
2018-09-23T12:39:35.443Z,4.43
2018-09-23T12:42:04.308Z,4.93
2018-09-23T12:44:34.217Z,4.53
2018-09-23T12:47:06.489Z,4.70
2018-09-23T12:49:34.372Z,4.60
2018-09-23T12:52:02.256Z,4.00
2018-09-23T12:54:32.169Z,3.83
2018-09-23T12:57:01.026Z,4.10
2018-09-23T12:59:29.990Z,4.13
2018-09-23T13:01:57.910Z,4.17
2018-09-23T13:04:27.851Z,4.47
2018-09-23T13:06:55.818Z,4.80
2018-09-23T13:09:23.787Z,4.97
2018-09-23T13:11:51.719Z,4.43
2018-09-23T13:14:19.642Z,5.00
2018-09-23T13:16:47.601Z,5.40
2018-09-23T13:19:15.512Z,5.20
2018-09-23T13:21:44.476Z,5.00
2018-09-23T13:24:12.397Z,5.00
2018-09-23T13:26:42.497Z,5.00
2018-09-23T13:29:11.471Z,5.07
2018-09-23T13:31:41.476Z,5.70
2018-09-23T13:34:09.360Z,4.90
2018-09-23T13:36:37.244Z,5.47
2018-09-23T13:39:06.469Z,5.80
2018-09-23T13:41:34.408Z,5.50
2018-09-23T13:44:02.284Z,6.27
2018-09-23T13:46:30.165Z,5.80
2018-09-23T13:48:59.370Z,6.13
2018-09-23T13:51:29.382Z,6.30
2018-09-23T13:53:57.336Z,6.70
2018-09-23T13:56:25.311Z,6.20
2018-09-23T13:58:54.168Z,6.60
2018-09-23T14:01:24.105Z,6.53
2018-09-23T14:03:55.394Z,7.13
2018-09-23T14:06:24.288Z,7.70
2018-09-23T14:08:57.637Z,7.47
2018-09-23T14:11:26.582Z,7.47
2018-09-23T14:13:59.062Z,7.30
2018-09-23T14:16:27.010Z,7.20
2018-09-23T14:18:56.909Z,9.30
2018-09-23T14:21:24.748Z,9.00
2018-09-23T14:23:54.688Z,6.80
2018-09-23T14:26:22.622Z,6.70
2018-09-23T14:28:51.540Z,6.13
2018-09-23T14:31:20.449Z,6.40
2018-09-23T14:33:48.412Z,6.77
2018-09-23T14:36:17.363Z,12.33
2018-09-23T14:38:45.218Z,9.47
2018-09-23T14:41:15.466Z,7.90
2018-09-23T14:43:46.783Z,8.50
2018-09-23T14:46:15.823Z,7.40
2018-09-23T14:48:43.670Z,6.67
2018-09-23T14:51:13.577Z,16.03
2018-09-23T14:53:41.516Z,19.27
2018-09-23T14:56:09.478Z,8.20
2018-09-23T14:58:37.392Z,6.87
2018-09-23T15:01:07.398Z,8.50
2018-09-23T15:03:37.371Z,9.50
2018-09-23T15:06:05.327Z,8.00
2018-09-23T15:08:34.222Z,9.57
2018-09-23T15:11:12.265Z,9.03
2018-09-23T15:13:40.224Z,23.77
2018-09-23T15:16:09.211Z,36.93
2018-09-23T15:18:37.197Z,16.03
2018-09-23T15:21:06.125Z,9.67
2018-09-23T15:23:34.026Z,8.60
2018-09-23T15:26:02.918Z,8.70
2018-09-23T15:28:31.815Z,28.90
2018-09-23T15:30:59.784Z,17.00
2018-09-23T15:33:27.832Z,11.43
2018-09-23T15:35:55.781Z,9.27
2018-09-23T15:38:25.762Z,8.00
2018-09-23T15:40:54.680Z,8.47
2018-09-23T15:43:22.606Z,8.97
2018-09-23T15:45:50.554Z,8.27
2018-09-23T15:48:18.481Z,8.03
2018-09-23T15:50:47.337Z,8.13
2018-09-23T15:53:19.215Z,8.10
2018-09-23T15:55:47.151Z,9.27
2018-09-23T15:58:15.118Z,8.27
2018-09-23T16:00:46.091Z,7.80
2018-09-23T16:03:15.076Z,6.90
2018-09-23T16:05:42.982Z,6.00
2018-09-23T16:08:14.388Z,5.80
2018-09-23T16:10:44.282Z,5.10
2018-09-23T16:13:14.170Z,4.90
2018-09-23T16:15:43.063Z,6.80
2018-09-23T16:18:16.999Z,5.73
2018-09-23T16:20:49.546Z,4.50
2018-09-23T16:23:18.504Z,5.27
2018-09-23T16:25:46.402Z,5.57
2018-09-23T16:28:15.310Z,5.60
2018-09-23T16:30:45.205Z,5.47
2018-09-23T16:33:14.142Z,5.53
2018-09-23T16:35:42.048Z,5.63
2018-09-23T16:38:10.978Z,5.47
2018-09-23T16:40:39.945Z,5.40
2018-09-23T16:43:08.848Z,4.70
2018-09-23T16:45:36.681Z,4.60
2018-09-23T16:48:05.578Z,4.40
2018-09-23T16:50:34.412Z,4.50
2018-09-23T16:53:07.183Z,4.67
2018-09-23T16:55:37.129Z,4.20
2018-09-23T16:58:05.017Z,3.90
2018-09-23T17:00:32.960Z,3.90
2018-09-23T17:03:02.858Z,3.83
2018-09-23T17:05:30.784Z,3.80
2018-09-23T17:07:58.722Z,3.53
2018-09-23T17:10:28.570Z,3.87
2018-09-23T17:12:57.461Z,3.63
2018-09-23T17:15:25.397Z,3.33
2018-09-23T17:17:53.359Z,3.37
2018-09-23T17:20:21.666Z,3.57
2018-09-23T17:22:50.564Z,3.53
2018-09-23T17:25:19.529Z,3.50
2018-09-23T17:27:47.462Z,4.30
2018-09-23T17:30:16.453Z,3.80
2018-09-23T17:32:46.317Z,4.60
2018-09-23T17:35:16.325Z,4.25
2018-09-23T17:37:44.306Z,4.37
2018-09-23T17:40:14.138Z,4.40
2018-09-23T17:42:44.088Z,4.57
2018-09-23T17:45:11.933Z,4.93
2018-09-23T17:47:41.889Z,4.80
2018-09-23T17:50:09.834Z,4.43
2018-09-23T17:52:37.871Z,4.80
2018-09-23T17:55:05.814Z,7.97
2018-09-23T17:57:34.807Z,5.70
2018-09-23T18:00:04.772Z,5.60
2018-09-23T18:02:33.632Z,5.00
2018-09-23T18:05:02.517Z,4.27
2018-09-23T18:07:30.389Z,4.50
2018-09-23T18:09:58.331Z,4.77
2018-09-23T18:12:26.262Z,4.00
2018-09-23T18:14:55.154Z,6.03
2018-09-23T18:17:22.984Z,7.57
2018-09-23T18:19:51.960Z,4.47
2018-09-23T18:22:19.853Z,4.43
2018-09-23T18:24:48.770Z,4.43
2018-09-23T18:27:16.665Z,4.83
2018-09-23T18:29:44.611Z,4.50
2018-09-23T18:32:12.511Z,4.57
2018-09-23T18:34:40.494Z,4.97
2018-09-23T18:37:09.411Z,4.00
2018-09-23T18:39:37.320Z,4.60
2018-09-23T18:42:09.591Z,4.17
2018-09-23T18:44:37.626Z,3.73
2018-09-23T18:47:05.484Z,4.30
2018-09-23T18:49:33.410Z,4.67
2018-09-23T18:52:02.271Z,5.83
2018-09-23T18:54:35.761Z,4.40
2018-09-23T18:57:04.649Z,4.77
2018-09-23T18:59:32.628Z,4.63
2018-09-23T19:02:00.618Z,4.50
2018-09-23T19:04:28.501Z,4.13
2018-09-23T19:06:56.507Z,3.80
2018-09-23T19:09:24.402Z,3.83
2018-09-23T19:11:53.319Z,3.40
2018-09-23T19:14:21.267Z,4.10
2018-09-23T19:16:50.151Z,3.70
2018-09-23T19:19:17.977Z,4.03
2018-09-23T19:21:45.856Z,3.43
2018-09-23T19:24:13.778Z,3.70
2018-09-23T19:26:41.758Z,3.60
2018-09-23T19:29:09.612Z,3.63
2018-09-23T19:31:37.548Z,4.60
2018-09-23T19:34:09.299Z,4.07
2018-09-23T19:36:37.173Z,3.90
2018-09-23T19:39:07.254Z,4.23
2018-09-23T19:41:35.138Z,4.03
2018-09-23T19:44:03.049Z,4.00
2018-09-23T19:46:31.966Z,4.87
2018-09-23T19:49:00.822Z,4.07
2018-09-23T19:51:32.681Z,5.10
2018-09-23T19:54:00.580Z,4.50
2018-09-23T19:56:29.575Z,4.50
2018-09-23T19:58:57.522Z,4.60
2018-09-23T20:01:25.444Z,4.70
2018-09-23T20:03:54.356Z,4.63
2018-09-23T20:06:22.233Z,4.47
2018-09-23T20:08:50.217Z,5.20
2018-09-23T20:11:18.193Z,5.47
2018-09-23T20:13:46.160Z,5.93
2018-09-23T20:16:18.879Z,6.30
2018-09-23T20:18:46.733Z,6.30
2018-09-23T20:21:14.641Z,7.20
2018-09-23T20:23:43.537Z,9.47
2018-09-23T20:26:13.453Z,10.50
2018-09-23T20:28:42.399Z,12.10
2018-09-23T20:31:12.209Z,10.87
2018-09-23T20:33:40.081Z,9.93
2018-09-23T20:36:10.055Z,9.83
2018-09-23T20:38:37.926Z,10.33
2018-09-23T20:41:05.898Z,8.80
2018-09-23T20:43:37.510Z,8.50
2018-09-23T20:46:05.462Z,8.37
2018-09-23T20:48:35.429Z,8.10
2018-09-23T20:51:03.355Z,8.23
2018-09-23T20:53:31.258Z,8.13
2018-09-23T20:56:00.199Z,8.07
2018-09-23T20:58:28.112Z,6.40
2018-09-23T21:00:57.002Z,6.73
2018-09-23T21:03:24.983Z,6.50
2018-09-23T21:05:52.940Z,5.73
2018-09-23T21:08:20.869Z,5.80
2018-09-23T21:10:48.789Z,6.10
2018-09-23T21:13:17.730Z,4.50
2018-09-23T21:15:47.671Z,5.27
2018-09-23T21:18:17.605Z,4.23
2018-09-23T21:20:45.441Z,3.97
2018-09-23T21:23:13.353Z,4.37
2018-09-23T21:25:42.250Z,3.80
2018-09-23T21:28:10.213Z,3.70
2018-09-23T21:30:39.477Z,3.10
2018-09-23T21:33:07.313Z,3.50
2018-09-23T21:35:35.206Z,3.00
2018-09-23T21:38:03.097Z,2.60
2018-09-23T21:40:31.969Z,2.73
2018-09-23T21:42:59.837Z,2.37
2018-09-23T21:45:27.733Z,2.53
2018-09-23T21:47:55.695Z,2.17
2018-09-23T21:50:23.601Z,2.70
2018-09-23T21:52:51.554Z,2.23
2018-09-23T21:55:20.410Z,2.20
2018-09-23T21:57:48.343Z,2.50
2018-09-23T22:00:16.262Z,2.37
2018-09-23T22:02:45.284Z,3.03
2018-09-23T22:05:14.225Z,2.50
2018-09-23T22:07:42.134Z,2.67
2018-09-23T22:10:11.031Z,2.70
2018-09-23T22:12:38.913Z,2.83
2018-09-23T22:15:16.579Z,2.80
2018-09-23T22:17:44.529Z,3.33
2018-09-23T22:20:12.396Z,3.33
2018-09-23T22:22:41.257Z,3.50
2018-09-23T22:25:10.150Z,3.70
2018-09-23T22:27:38.077Z,4.97
2018-09-23T22:30:07.227Z,4.60
2018-09-23T22:32:35.189Z,5.00
2018-09-23T22:35:03.542Z,5.40
2018-09-23T22:37:35.637Z,5.40
2018-09-23T22:40:06.431Z,5.53
2018-09-23T22:42:34.620Z,5.73
2018-09-23T22:45:03.942Z,6.40
2018-09-23T22:47:31.859Z,6.17
2018-09-23T22:50:01.947Z,5.70
2018-09-23T22:52:29.834Z,5.50
2018-09-23T22:54:57.773Z,5.17
2018-09-23T22:57:26.685Z,5.13
2018-09-23T22:59:54.574Z,3.93
2018-09-23T23:02:23.504Z,4.93
2018-09-23T23:04:51.470Z,5.10
2018-09-23T23:07:20.378Z,4.00
2018-09-23T23:09:48.399Z,4.10
2018-09-23T23:12:17.304Z,4.27
2018-09-23T23:14:46.258Z,3.50
2018-09-23T23:17:15.155Z,3.40
2018-09-23T23:19:43.155Z,3.33
2018-09-23T23:22:12.274Z,3.20
2018-09-23T23:24:41.202Z,3.17
2018-09-23T23:27:10.058Z,2.90
2018-09-23T23:29:38.951Z,2.70
2018-09-23T23:32:06.916Z,3.40
2018-09-23T23:34:34.888Z,3.07
2018-09-23T23:37:02.749Z,2.93
2018-09-23T23:39:31.632Z,2.93
2018-09-23T23:41:59.529Z,2.77
2018-09-23T23:44:27.410Z,2.80
2018-09-23T23:46:56.306Z,3.00
2018-09-23T23:49:24.163Z,3.00
2018-09-23T23:51:52.056Z,3.07
2018-09-23T23:54:19.985Z,3.30
2018-09-23T23:56:48.903Z,3.73
2018-09-23T23:59:16.883Z,3.90
